createdAt,value
2023-04-10T00:01:09.459Z,88.80
2023-04-10T00:03:36.912Z,88.30
2023-04-10T00:06:04.567Z,88.00
2023-04-10T00:08:31.876Z,87.90
2023-04-10T00:10:58.962Z,88.20
2023-04-10T00:13:26.392Z,88.80
2023-04-10T00:15:53.505Z,89.70
2023-04-10T00:18:20.796Z,89.90
2023-04-10T00:20:47.839Z,89.60
2023-04-10T00:23:14.909Z,89.60
2023-04-10T00:25:42.007Z,89.80
2023-04-10T00:28:09.092Z,90.00
2023-04-10T00:30:36.218Z,90.00
2023-04-10T00:33:03.444Z,90.10
2023-04-10T00:35:30.670Z,90.20
2023-04-10T00:37:57.835Z,90.40
2023-04-10T00:40:25.127Z,90.40
2023-04-10T00:42:52.413Z,90.40
2023-04-10T00:45:19.594Z,90.50
2023-04-10T00:47:47.060Z,90.80
2023-04-10T00:50:14.400Z,90.90
2023-04-10T00:52:41.532Z,90.80
2023-04-10T00:55:09.588Z,91.00
2023-04-10T00:57:37.765Z,91.10
2023-04-10T01:00:05.495Z,91.20
2023-04-10T01:02:32.693Z,90.90
2023-04-10T01:05:00.164Z,90.70
2023-04-10T01:08:08.842Z,90.60
2023-04-10T01:10:43.038Z,90.80
2023-04-10T01:13:41.609Z,91.10
2023-04-10T01:16:26.766Z,91.30
2023-04-10T01:19:18.961Z,91.40
2023-04-10T01:21:46.544Z,91.50
2023-04-10T01:24:57.891Z,91.10
2023-04-10T01:28:16.323Z,91.50
2023-04-10T01:30:47.474Z,91.90
2023-04-10T01:33:20.634Z,92.00
2023-04-10T01:35:58.177Z,92.10
2023-04-10T01:38:29.473Z,91.90
2023-04-10T01:41:01.264Z,92.10
2023-04-10T01:43:32.812Z,92.20
2023-04-10T01:46:03.907Z,92.20
2023-04-10T01:48:31.547Z,92.30
2023-04-10T01:51:04.449Z,92.40
2023-04-10T01:53:32.856Z,92.10
2023-04-10T01:56:00.757Z,92.20
2023-04-10T01:58:27.916Z,91.70
2023-04-10T02:00:57.098Z,92.10
2023-04-10T02:03:24.625Z,92.20
2023-04-10T02:06:37.599Z,92.40
2023-04-10T02:09:23.880Z,92.60
2023-04-10T02:12:06.868Z,92.60
2023-04-10T02:14:41.541Z,92.50
2023-04-10T02:17:11.360Z,92.40
2023-04-10T02:19:41.236Z,92.30
2023-04-10T02:22:08.755Z,92.50
2023-04-10T02:24:36.105Z,92.70
2023-04-10T02:27:03.549Z,93.10
2023-04-10T02:29:30.861Z,92.90
2023-04-10T02:31:57.939Z,93.20
2023-04-10T02:34:24.998Z,93.00
2023-04-10T02:36:52.652Z,93.40
2023-04-10T02:39:20.097Z,93.20
2023-04-10T02:41:52.147Z,92.90
2023-04-10T02:44:19.230Z,93.00
2023-04-10T02:46:47.183Z,93.10
2023-04-10T02:49:14.983Z,92.90
2023-04-10T02:51:42.057Z,93.40
2023-04-10T02:54:09.286Z,93.40
2023-04-10T02:56:37.749Z,93.20
2023-04-10T02:59:04.888Z,93.00
2023-04-10T03:01:32.235Z,93.30
2023-04-10T03:04:00.193Z,93.40
2023-04-10T03:06:31.775Z,93.50
2023-04-10T03:08:59.188Z,93.50
2023-04-10T03:11:27.666Z,93.50
2023-04-10T03:13:55.730Z,93.80
2023-04-10T03:16:23.018Z,94.20
2023-04-10T03:18:50.281Z,94.10
2023-04-10T03:21:17.415Z,93.90
2023-04-10T03:23:44.495Z,93.60
2023-04-10T03:26:11.694Z,93.30
2023-04-10T03:28:39.851Z,93.80
2023-04-10T03:31:10.758Z,93.50
2023-04-10T03:33:38.143Z,93.60
2023-04-10T03:36:06.106Z,93.50
2023-04-10T03:38:33.779Z,93.80
2023-04-10T03:41:01.169Z,94.40
2023-04-10T03:43:33.976Z,94.50
2023-04-10T03:46:03.354Z,94.20
2023-04-10T03:48:30.770Z,94.50
2023-04-10T03:50:58.399Z,94.60
2023-04-10T03:53:25.892Z,94.70
2023-04-10T03:55:54.535Z,94.50
2023-04-10T03:58:23.215Z,94.60
2023-04-10T04:00:51.880Z,94.30
2023-04-10T04:03:28.689Z,94.20
2023-04-10T04:06:14.689Z,95.70
2023-04-10T04:09:04.654Z,94.40
2023-04-10T04:11:50.117Z,94.40
2023-04-10T04:14:35.898Z,94.50
2023-04-10T04:17:22.797Z,94.50
2023-04-10T04:20:06.509Z,94.30
2023-04-10T04:22:42.724Z,94.30
2023-04-10T04:25:28.312Z,95.10
2023-04-10T04:28:21.279Z,94.70
2023-04-10T04:31:07.145Z,94.80
2023-04-10T04:33:49.026Z,94.60
2023-04-10T04:36:29.059Z,95.30
2023-04-10T04:39:19.180Z,95.50
2023-04-10T04:41:49.187Z,95.10
2023-04-10T04:44:45.892Z,95.80
2023-04-10T04:47:35.891Z,95.60
2023-04-10T04:50:09.764Z,95.70
2023-04-10T04:52:55.274Z,95.70
2023-04-10T04:55:31.274Z,95.40
2023-04-10T04:58:36.806Z,95.60
2023-04-10T05:01:31.034Z,95.20
2023-04-10T05:04:17.972Z,95.10
2023-04-10T05:06:58.738Z,95.20
2023-04-10T05:09:53.969Z,95.40
2023-04-10T05:12:36.253Z,95.40
2023-04-10T05:15:19.610Z,95.70
2023-04-10T05:17:54.711Z,95.70
2023-04-10T05:20:40.589Z,96.10
2023-04-10T05:23:30.882Z,96.00
2023-04-10T05:26:15.334Z,96.30
2023-04-10T05:29:01.018Z,96.20
2023-04-10T05:31:46.866Z,95.90
2023-04-10T05:34:22.032Z,96.00
2023-04-10T05:37:11.648Z,96.20
2023-04-10T05:40:00.011Z,96.20
2023-04-10T05:42:27.131Z,96.20
2023-04-10T05:45:30.249Z,96.00
2023-04-10T05:48:03.508Z,96.50
2023-04-10T05:50:43.634Z,96.60
2023-04-10T05:53:15.452Z,96.70
2023-04-10T05:55:51.703Z,96.50
2023-04-10T05:58:45.243Z,96.60
2023-04-10T06:01:15.368Z,96.70
2023-04-10T06:03:51.642Z,97.00
2023-04-10T06:06:20.818Z,97.40
2023-04-10T06:08:47.903Z,97.40
2023-04-10T06:11:15.563Z,97.50
2023-04-10T06:13:46.608Z,97.70
2023-04-10T06:16:15.468Z,97.70
2023-04-10T06:18:44.085Z,97.90
2023-04-10T06:21:11.186Z,98.10
2023-04-10T06:23:38.954Z,98.10
2023-04-10T06:26:06.397Z,98.30
2023-04-10T06:28:33.433Z,98.50
2023-04-10T06:31:04.307Z,98.70
2023-04-10T06:33:37.670Z,98.80
2023-04-10T06:36:08.077Z,98.90
2023-04-10T06:38:41.412Z,99.00
2023-04-10T06:41:09.018Z,99.10
2023-04-10T06:43:39.724Z,99.60
2023-04-10T06:46:07.424Z,99.60
2023-04-10T06:48:34.759Z,99.80
2023-04-10T06:51:02.011Z,99.90
2023-04-10T06:53:29.227Z,99.90
2023-04-10T06:55:57.409Z,99.90
2023-04-10T06:58:24.778Z,99.90
2023-04-10T07:00:52.129Z,99.90
2023-04-10T07:03:19.325Z,99.90
2023-04-10T07:05:46.508Z,99.90
2023-04-10T07:08:13.573Z,99.90
2023-04-10T07:10:40.670Z,99.90
2023-04-10T07:13:07.799Z,99.90
2023-04-10T07:15:34.905Z,99.90
2023-04-10T07:18:02.121Z,99.90
2023-04-10T07:20:29.300Z,99.90
2023-04-10T07:22:56.446Z,99.90
2023-04-10T07:25:23.676Z,99.90
2023-04-10T07:27:51.080Z,99.90
2023-04-10T07:30:18.976Z,99.90
2023-04-10T07:32:46.701Z,99.90
2023-04-10T07:35:14.012Z,99.90
2023-04-10T07:37:43.815Z,99.90
2023-04-10T07:40:11.533Z,99.90
2023-04-10T07:42:38.672Z,99.90
2023-04-10T07:45:06.656Z,99.90
2023-04-10T07:47:33.893Z,99.90
2023-04-10T07:50:01.437Z,99.90
2023-04-10T07:52:28.483Z,99.90
2023-04-10T07:54:55.701Z,99.90
2023-04-10T07:57:22.869Z,99.90
2023-04-10T07:59:49.986Z,99.90
2023-04-10T08:02:17.129Z,99.90
2023-04-10T08:04:44.376Z,99.90
2023-04-10T08:07:11.625Z,99.90
2023-04-10T08:09:38.757Z,99.90
2023-04-10T08:12:05.950Z,99.90
2023-04-10T08:14:33.048Z,99.90
2023-04-10T08:17:00.191Z,99.70
2023-04-10T08:19:27.356Z,99.30
2023-04-10T08:21:54.428Z,99.10
2023-04-10T08:24:22.989Z,99.10
2023-04-10T08:26:50.111Z,98.90
2023-04-10T08:29:17.241Z,98.70
2023-04-10T08:31:44.284Z,98.30
2023-04-10T08:34:11.564Z,97.80
2023-04-10T08:36:38.641Z,97.20
2023-04-10T08:39:05.764Z,96.90
2023-04-10T08:41:33.049Z,97.00
2023-04-10T08:44:00.228Z,96.90
2023-04-10T08:46:29.274Z,96.30
2023-04-10T08:49:04.684Z,96.00
2023-04-10T08:51:50.379Z,95.30
2023-04-10T08:54:33.777Z,95.30
2023-04-10T08:57:04.832Z,95.30
2023-04-10T08:59:32.294Z,95.10
2023-04-10T09:01:59.911Z,94.70
2023-04-10T09:04:27.921Z,94.20
2023-04-10T09:06:55.328Z,94.40
2023-04-10T09:09:22.447Z,94.20
2023-04-10T09:11:52.621Z,94.00
2023-04-10T09:14:36.296Z,93.90
2023-04-10T09:17:20.817Z,94.20
2023-04-10T09:19:55.082Z,94.10
2023-04-10T09:22:35.069Z,93.00
2023-04-10T09:25:04.338Z,92.90
2023-04-10T09:27:35.674Z,93.30
2023-04-10T09:30:05.120Z,93.20
2023-04-10T09:32:39.774Z,92.80
2023-04-10T09:35:08.663Z,92.10
2023-04-10T09:37:37.089Z,92.80
2023-04-10T09:40:05.446Z,92.60
2023-04-10T09:42:37.703Z,92.00
2023-04-10T09:45:06.471Z,92.10
2023-04-10T09:47:34.351Z,91.70
2023-04-10T09:50:02.129Z,91.60
2023-04-10T09:52:35.294Z,91.50
2023-04-10T09:55:10.023Z,91.50
2023-04-10T09:57:37.169Z,91.90
2023-04-10T10:00:09.365Z,90.80
2023-04-10T10:02:41.772Z,91.30
2023-04-10T10:05:11.286Z,90.60
2023-04-10T10:07:39.698Z,90.60
2023-04-10T10:10:09.237Z,89.20
2023-04-10T10:13:01.848Z,89.20
2023-04-10T10:15:44.248Z,87.20
2023-04-10T10:18:25.602Z,87.70
2023-04-10T10:20:54.275Z,86.80
2023-04-10T10:23:23.391Z,87.60
2023-04-10T10:25:52.826Z,87.50
2023-04-10T10:28:21.661Z,87.60
2023-04-10T10:30:49.881Z,90.30
2023-04-10T10:33:17.948Z,89.30
2023-04-10T10:35:46.453Z,89.20
2023-04-10T10:38:14.730Z,88.80
2023-04-10T10:40:59.877Z,87.80
2023-04-10T10:44:16.850Z,88.20
2023-04-10T10:47:04.536Z,89.10
2023-04-10T10:50:08.781Z,89.70
2023-04-10T10:52:43.958Z,87.50
2023-04-10T10:55:25.855Z,87.50
2023-04-10T10:58:01.928Z,87.40
2023-04-10T11:00:50.383Z,88.20
2023-04-10T11:03:17.581Z,85.40
2023-04-10T11:06:00.921Z,86.00
2023-04-10T11:08:36.680Z,88.10
2023-04-10T11:11:09.621Z,82.20
2023-04-10T11:13:42.860Z,82.40
2023-04-10T11:16:10.799Z,81.90
2023-04-10T11:18:51.217Z,82.40
2023-04-10T11:21:23.964Z,81.00
2023-04-10T11:23:54.162Z,82.40
2023-04-10T11:26:33.725Z,83.60
2023-04-10T11:29:26.678Z,81.10
2023-04-10T11:31:59.168Z,77.00
2023-04-10T11:34:27.657Z,78.20
2023-04-10T11:36:54.878Z,79.10
2023-04-10T11:39:22.187Z,78.40
2023-04-10T11:41:54.106Z,74.80
2023-04-10T11:44:39.102Z,76.30
2023-04-10T11:47:06.710Z,73.50
2023-04-10T11:49:35.041Z,73.40
2023-04-10T11:52:02.148Z,74.00
2023-04-10T11:54:30.252Z,76.90
2023-04-10T11:57:10.309Z,76.60
2023-04-10T11:59:37.582Z,73.20
2023-04-10T12:02:16.147Z,72.90
2023-04-10T12:04:44.786Z,73.30
2023-04-10T12:07:12.045Z,71.40
2023-04-10T12:09:39.146Z,72.20
2023-04-10T12:12:08.369Z,71.50
2023-04-10T12:14:43.057Z,70.40
2023-04-10T12:17:12.992Z,70.20
2023-04-10T12:19:41.504Z,69.60
2023-04-10T12:22:12.687Z,69.90
2023-04-10T12:24:49.451Z,71.60
2023-04-10T12:27:22.746Z,70.10
2023-04-10T12:29:53.204Z,67.70
2023-04-10T12:32:21.572Z,65.00
2023-04-10T12:34:54.023Z,66.10
2023-04-10T12:37:21.273Z,68.20
2023-04-10T12:39:48.733Z,69.60
2023-04-10T12:42:22.614Z,69.20
2023-04-10T12:45:01.324Z,69.90
2023-04-10T12:47:29.739Z,69.60
2023-04-10T12:50:11.715Z,69.00
2023-04-10T12:52:42.244Z,66.60
2023-04-10T12:55:19.885Z,65.30
2023-04-10T12:57:48.853Z,67.00
2023-04-10T13:00:19.709Z,65.40
2023-04-10T13:02:49.064Z,64.90
2023-04-10T13:05:16.447Z,63.40
2023-04-10T13:07:43.689Z,64.80
2023-04-10T13:10:11.105Z,62.20
2023-04-10T13:12:39.170Z,58.80
2023-04-10T13:15:07.882Z,63.30
2023-04-10T13:17:35.809Z,64.60
2023-04-10T13:20:03.712Z,64.90
2023-04-10T13:22:30.763Z,63.40
2023-04-10T13:24:57.885Z,62.30
2023-04-10T13:27:24.923Z,58.30
2023-04-10T13:29:51.958Z,56.80
2023-04-10T13:32:19.047Z,57.70
2023-04-10T13:34:46.174Z,57.60
2023-04-10T13:37:13.476Z,57.70
2023-04-10T13:39:41.009Z,57.20
2023-04-10T13:42:08.104Z,57.10
2023-04-10T13:44:35.227Z,59.00
2023-04-10T13:47:02.423Z,53.70
2023-04-10T13:49:30.564Z,56.20
2023-04-10T13:51:58.669Z,57.10
2023-04-10T13:54:26.604Z,56.90
2023-04-10T13:56:54.744Z,56.30
2023-04-10T13:59:22.149Z,55.70
2023-04-10T14:01:52.532Z,55.70
2023-04-10T14:04:19.945Z,57.20
2023-04-10T14:06:47.943Z,55.90
2023-04-10T14:09:15.867Z,56.30
2023-04-10T14:11:42.993Z,56.50
2023-04-10T14:14:10.161Z,56.60
2023-04-10T14:16:37.292Z,57.50
2023-04-10T14:19:04.380Z,54.00
2023-04-10T14:21:31.743Z,55.90
2023-04-10T14:23:59.879Z,56.10
2023-04-10T14:26:27.248Z,55.30
2023-04-10T14:28:54.553Z,55.60
2023-04-10T14:31:21.904Z,54.70
2023-04-10T14:33:49.690Z,55.00
2023-04-10T14:36:16.861Z,54.50
2023-04-10T14:38:43.991Z,52.70
2023-04-10T14:41:11.414Z,54.80
2023-04-10T14:43:38.673Z,54.40
2023-04-10T14:46:06.172Z,51.80
2023-04-10T14:48:33.357Z,53.40
2023-04-10T14:51:01.345Z,55.30
2023-04-10T14:53:28.452Z,54.40
2023-04-10T14:55:55.560Z,53.40
2023-04-10T14:58:22.655Z,53.80
2023-04-10T15:00:50.910Z,52.90
2023-04-10T15:03:18.238Z,52.70
2023-04-10T15:05:45.399Z,52.60
2023-04-10T15:08:12.582Z,52.30
2023-04-10T15:10:39.633Z,52.40
2023-04-10T15:13:06.702Z,53.60
2023-04-10T15:15:33.740Z,54.20
2023-04-10T15:18:00.873Z,55.00
2023-04-10T15:20:28.007Z,54.80
2023-04-10T15:22:55.035Z,55.60
2023-04-10T15:25:22.091Z,52.60
2023-04-10T15:27:49.166Z,53.20
2023-04-10T15:30:17.416Z,53.30
2023-04-10T15:32:44.532Z,54.50
2023-04-10T15:35:11.632Z,54.50
2023-04-10T15:37:38.780Z,52.20
2023-04-10T15:40:07.066Z,52.60
2023-04-10T15:42:34.963Z,52.90
2023-04-10T15:45:03.261Z,52.60
2023-04-10T15:47:30.819Z,54.30
2023-04-10T15:49:58.066Z,54.00
2023-04-10T15:52:25.405Z,54.90
2023-04-10T15:54:52.841Z,55.90
2023-04-10T15:57:19.975Z,52.90
2023-04-10T15:59:47.079Z,53.70
2023-04-10T16:02:14.229Z,51.20
2023-04-10T16:04:41.465Z,52.40
2023-04-10T16:07:08.618Z,52.40
2023-04-10T16:09:36.075Z,53.40
2023-04-10T16:12:03.230Z,52.40
2023-04-10T16:14:30.343Z,53.00
2023-04-10T16:16:57.434Z,54.40
2023-04-10T16:19:24.499Z,51.70
2023-04-10T16:21:51.906Z,51.70
2023-04-10T16:24:18.986Z,52.90
2023-04-10T16:26:46.102Z,52.00
2023-04-10T16:29:13.225Z,51.70
2023-04-10T16:31:40.442Z,51.60
2023-04-10T16:34:07.747Z,52.70
2023-04-10T16:36:34.851Z,53.00
2023-04-10T16:39:01.896Z,53.30
2023-04-10T16:41:28.977Z,53.40
2023-04-10T16:43:57.404Z,53.40
2023-04-10T16:46:24.523Z,54.00
2023-04-10T16:48:52.664Z,52.50
2023-04-10T16:51:19.820Z,53.00
2023-04-10T16:53:47.012Z,53.20
2023-04-10T16:56:14.156Z,54.20
2023-04-10T16:58:42.170Z,54.20
2023-04-10T17:01:18.269Z,54.00
2023-04-10T17:03:48.837Z,54.10
2023-04-10T17:06:16.873Z,53.90
2023-04-10T17:08:45.647Z,54.50
2023-04-10T17:11:13.526Z,54.60
2023-04-10T17:13:41.484Z,54.80
2023-04-10T17:16:10.005Z,54.40
2023-04-10T17:18:37.378Z,54.70
2023-04-10T17:21:04.952Z,54.20
2023-04-10T17:23:32.108Z,55.10
2023-04-10T17:25:59.366Z,55.30
2023-04-10T17:28:26.470Z,55.00
2023-04-10T17:30:53.596Z,55.00
2023-04-10T17:33:21.802Z,55.70
2023-04-10T17:35:51.345Z,56.10
2023-04-10T17:38:18.982Z,55.80
2023-04-10T17:40:46.065Z,55.20
2023-04-10T17:43:13.162Z,55.70
2023-04-10T17:45:40.665Z,56.10
2023-04-10T17:48:10.380Z,55.70
2023-04-10T17:50:37.552Z,56.50
2023-04-10T17:53:04.591Z,56.30
2023-04-10T17:55:32.618Z,56.10
2023-04-10T17:57:59.788Z,56.80
2023-04-10T18:00:26.945Z,56.80
2023-04-10T18:02:59.939Z,57.10
2023-04-10T18:05:30.699Z,57.50
2023-04-10T18:07:57.801Z,57.30
2023-04-10T18:10:24.899Z,57.10
2023-04-10T18:12:52.009Z,57.30
2023-04-10T18:15:19.161Z,57.70
2023-04-10T18:17:47.420Z,57.80
2023-04-10T18:20:15.007Z,57.90
2023-04-10T18:22:42.102Z,58.00
2023-04-10T18:25:09.519Z,58.20
2023-04-10T18:27:36.674Z,58.30
2023-04-10T18:30:04.065Z,58.20
2023-04-10T18:32:31.216Z,58.30
2023-04-10T18:34:58.380Z,58.30
2023-04-10T18:37:25.611Z,58.50
2023-04-10T18:39:54.227Z,58.30
2023-04-10T18:42:21.613Z,58.60
2023-04-10T18:44:48.817Z,58.90
2023-04-10T18:47:15.959Z,58.80
2023-04-10T18:49:43.073Z,59.10
2023-04-10T18:52:10.175Z,59.10
2023-04-10T18:54:38.850Z,59.30
2023-04-10T18:57:07.435Z,59.10
2023-04-10T18:59:36.885Z,59.40
2023-04-10T19:02:04.120Z,59.40
2023-04-10T19:04:31.314Z,59.40
2023-04-10T19:06:58.518Z,59.00
2023-04-10T19:09:25.706Z,59.10
2023-04-10T19:11:53.789Z,59.20
2023-04-10T19:14:20.993Z,59.20
2023-04-10T19:16:48.070Z,59.20
2023-04-10T19:19:15.298Z,59.10
2023-04-10T19:21:42.361Z,59.50
2023-04-10T19:24:09.482Z,58.40
2023-04-10T19:26:37.820Z,58.50
2023-04-10T19:29:05.076Z,57.50
2023-04-10T19:31:32.372Z,58.00
2023-04-10T19:34:02.523Z,57.30
2023-04-10T19:36:29.630Z,57.80
2023-04-10T19:38:57.490Z,58.00
2023-04-10T19:41:24.872Z,57.90
2023-04-10T19:43:54.033Z,57.50
2023-04-10T19:46:22.343Z,57.70
2023-04-10T19:48:50.039Z,57.50
2023-04-10T19:51:17.262Z,57.60
2023-04-10T19:53:44.409Z,57.60
2023-04-10T19:56:11.482Z,57.50
2023-04-10T19:58:40.675Z,57.20
2023-04-10T20:01:09.402Z,57.20
2023-04-10T20:03:37.731Z,57.40
2023-04-10T20:06:09.109Z,57.20
2023-04-10T20:08:36.773Z,56.80
2023-04-10T20:11:07.135Z,57.60
2023-04-10T20:13:34.956Z,57.30
2023-04-10T20:16:02.724Z,57.30
2023-04-10T20:18:32.144Z,58.50
2023-04-10T20:20:59.323Z,57.70
2023-04-10T20:23:26.494Z,58.00
2023-04-10T20:25:53.605Z,57.80
2023-04-10T20:28:20.890Z,58.20
2023-04-10T20:30:48.034Z,57.70
2023-04-10T20:33:15.537Z,57.70
2023-04-10T20:35:42.719Z,57.40
2023-04-10T20:38:09.911Z,57.60
2023-04-10T20:40:37.044Z,57.70
2023-04-10T20:43:10.779Z,57.50
2023-04-10T20:45:39.630Z,57.50
2023-04-10T20:48:08.794Z,58.20
2023-04-10T20:50:37.139Z,58.10
2023-04-10T20:53:04.464Z,58.30
2023-04-10T20:55:31.560Z,58.40
2023-04-10T20:57:58.738Z,58.40
2023-04-10T21:00:26.136Z,58.50
2023-04-10T21:02:53.355Z,58.60
2023-04-10T21:05:20.603Z,59.00
2023-04-10T21:07:47.822Z,59.20
2023-04-10T21:10:14.892Z,59.20
2023-04-10T21:12:41.975Z,59.50
2023-04-10T21:15:09.702Z,59.50
2023-04-10T21:17:36.863Z,59.80
2023-04-10T21:20:04.341Z,60.00
2023-04-10T21:22:31.434Z,60.10
2023-04-10T21:24:58.658Z,60.00
2023-04-10T21:27:25.801Z,60.10
2023-04-10T21:29:52.875Z,60.00
2023-04-10T21:32:20.514Z,60.20
2023-04-10T21:34:47.723Z,60.00
2023-04-10T21:37:14.820Z,60.30
2023-04-10T21:39:42.094Z,60.60
2023-04-10T21:42:09.281Z,60.70
2023-04-10T21:44:36.367Z,60.70
2023-04-10T21:47:03.551Z,61.00
2023-04-10T21:49:30.662Z,61.20
2023-04-10T21:51:59.215Z,61.30
2023-04-10T21:54:26.383Z,61.00
2023-04-10T21:56:53.478Z,61.20
2023-04-10T21:59:20.661Z,61.40
2023-04-10T22:01:47.892Z,61.40
2023-04-10T22:04:15.241Z,61.60
2023-04-10T22:06:42.453Z,62.00
2023-04-10T22:09:09.540Z,62.00
2023-04-10T22:11:39.173Z,62.60
2023-04-10T22:14:17.201Z,62.50
2023-04-10T22:16:44.633Z,62.20
2023-04-10T22:19:11.829Z,62.00
2023-04-10T22:21:38.900Z,62.30
2023-04-10T22:24:06.462Z,62.70
2023-04-10T22:26:35.367Z,63.30
2023-04-10T22:29:03.981Z,63.30
2023-04-10T22:31:31.192Z,63.70
2023-04-10T22:33:58.366Z,63.80
2023-04-10T22:36:33.625Z,63.70
2023-04-10T22:39:00.715Z,63.50
2023-04-10T22:41:29.634Z,63.50
2023-04-10T22:43:56.776Z,64.30
2023-04-10T22:46:23.962Z,63.70
2023-04-10T22:48:51.135Z,63.90
2023-04-10T22:51:18.205Z,64.30
2023-04-10T22:53:45.282Z,64.50
2023-04-10T22:56:12.440Z,64.60
2023-04-10T22:58:40.549Z,64.50
2023-04-10T23:01:09.374Z,63.60
2023-04-10T23:03:36.705Z,63.20
2023-04-10T23:06:04.363Z,63.70
2023-04-10T23:08:31.479Z,64.60
2023-04-10T23:10:58.658Z,64.20
2023-04-10T23:13:25.893Z,63.30
2023-04-10T23:15:54.994Z,64.60
2023-04-10T23:18:22.818Z,64.00
2023-04-10T23:20:50.818Z,64.50
2023-04-10T23:25:45.596Z,64.60
2023-04-10T23:28:12.697Z,65.30
2023-04-10T23:30:40.043Z,65.40
2023-04-10T23:33:07.193Z,65.70
2023-04-10T23:35:34.369Z,65.60
2023-04-10T23:38:01.808Z,65.60
2023-04-10T23:40:28.879Z,65.20
2023-04-10T23:42:56.002Z,65.60
2023-04-10T23:45:23.182Z,66.00
2023-04-10T23:47:51.003Z,66.10
2023-04-10T23:50:18.501Z,66.10
2023-04-10T23:52:50.979Z,66.50
2023-04-10T23:55:18.756Z,66.50
2023-04-10T23:57:45.848Z,66.80
